Crisfield, Maryland
Current Conditions -  °F | °C
As of 4:37 PM on Saturday 22 Nov 2014 (Local Time) from KTGI Reporting Station
Clear Clear  
Wind Chill: 40°   Ceiling: Unl
Heat Index: 46°   Visibility: 10mi
Dew Point: 28°   Wind: 14mph
Humidity: 50%   Direction: 200°SSW
Pressure: 30.38"   Gusts: NA
Location:  37.98°N, 75.85°W
Report Text: KTGI 222137Z AUTO 20012KT 10SM CLR 08/M02 A3038 RMK AO1
Loading
Personal Weather Stations






























Interactive Weather Map New forecast layout! Learn more

10-Day Weather Forecast

Advertisements
Track Severe Weather on mobile